sensor_id;sensor_type;location;lat;lon;timestamp;P1;durP1;ratioP1;P2;durP2;ratioP2
32172;SDS011;18679;45.190;5.722;2023-03-04T00:02:57;41.88;;;17.17;;
32172;SDS011;18679;45.190;5.722;2023-03-04T00:05:58;46.28;;;16.73;;
32172;SDS011;18679;45.190;5.722;2023-03-04T00:08:59;52.90;;;17.63;;
32172;SDS011;18679;45.190;5.722;2023-03-04T00:11:59;44.90;;;17.92;;
32172;SDS011;18679;45.190;5.722;2023-03-04T00:15:00;47.70;;;17.25;;
32172;SDS011;18679;45.190;5.722;2023-03-04T00:18:01;45.60;;;18.92;;
32172;SDS011;18679;45.190;5.722;2023-03-04T00:21:02;49.78;;;18.15;;
32172;SDS011;18679;45.190;5.722;2023-03-04T00:24:03;44.70;;;17.83;;
32172;SDS011;18679;45.190;5.722;2023-03-04T00:27:06;55.08;;;17.80;;
32172;SDS011;18679;45.190;5.722;2023-03-04T00:30:07;42.47;;;16.75;;
32172;SDS011;18679;45.190;5.722;2023-03-04T00:33:09;55.05;;;18.67;;
32172;SDS011;18679;45.190;5.722;2023-03-04T00:36:10;45.22;;;17.77;;
32172;SDS011;18679;45.190;5.722;2023-03-04T00:39:11;54.15;;;18.27;;
32172;SDS011;18679;45.190;5.722;2023-03-04T00:42:12;48.10;;;16.35;;
32172;SDS011;18679;45.190;5.722;2023-03-04T00:45:13;44.03;;;18.05;;
32172;SDS011;18679;45.190;5.722;2023-03-04T00:48:14;46.65;;;16.52;;
32172;SDS011;18679;45.190;5.722;2023-03-04T00:51:15;44.72;;;16.38;;
32172;SDS011;18679;45.190;5.722;2023-03-04T00:54:16;42.40;;;17.90;;
32172;SDS011;18679;45.190;5.722;2023-03-04T00:57:17;47.38;;;18.27;;
32172;SDS011;18679;45.190;5.722;2023-03-04T01:00:18;47.08;;;18.70;;
32172;SDS011;18679;45.190;5.722;2023-03-04T01:03:19;46.33;;;18.10;;
32172;SDS011;18679;45.190;5.722;2023-03-04T01:06:20;41.60;;;16.88;;
32172;SDS011;18679;45.190;5.722;2023-03-04T01:09:21;45.33;;;18.00;;
32172;SDS011;18679;45.190;5.722;2023-03-04T01:12:22;48.40;;;18.25;;
32172;SDS011;18679;45.190;5.722;2023-03-04T01:15:23;46.15;;;16.45;;
32172;SDS011;18679;45.190;5.722;2023-03-04T01:18:25;57.13;;;17.60;;
32172;SDS011;18679;45.190;5.722;2023-03-04T01:21:26;52.25;;;17.45;;
32172;SDS011;18679;45.190;5.722;2023-03-04T01:24:29;47.00;;;18.10;;
32172;SDS011;18679;45.190;5.722;2023-03-04T01:27:30;51.10;;;18.33;;
32172;SDS011;18679;45.190;5.722;2023-03-04T01:30:31;48.80;;;17.67;;
32172;SDS011;18679;45.190;5.722;2023-03-04T01:33:32;51.72;;;19.38;;
32172;SDS011;18679;45.190;5.722;2023-03-04T01:36:33;51.42;;;17.60;;
32172;SDS011;18679;45.190;5.722;2023-03-04T01:39:34;50.70;;;18.38;;
32172;SDS011;18679;45.190;5.722;2023-03-04T01:42:35;57.60;;;19.42;;
32172;SDS011;18679;45.190;5.722;2023-03-04T01:45:36;51.65;;;19.35;;
32172;SDS011;18679;45.190;5.722;2023-03-04T01:48:37;47.50;;;18.60;;
32172;SDS011;18679;45.190;5.722;2023-03-04T01:51:39;46.78;;;18.83;;
32172;SDS011;18679;45.190;5.722;2023-03-04T01:54:48;46.83;;;18.40;;
32172;SDS011;18679;45.190;5.722;2023-03-04T01:57:49;50.60;;;19.20;;
32172;SDS011;18679;45.190;5.722;2023-03-04T02:00:51;57.05;;;18.88;;
32172;SDS011;18679;45.190;5.722;2023-03-04T02:03:52;55.15;;;19.08;;
32172;SDS011;18679;45.190;5.722;2023-03-04T02:06:53;45.85;;;18.73;;
32172;SDS011;18679;45.190;5.722;2023-03-04T02:09:55;52.88;;;19.02;;
32172;SDS011;18679;45.190;5.722;2023-03-04T02:12:56;47.75;;;16.77;;
32172;SDS011;18679;45.190;5.722;2023-03-04T02:15:59;49.63;;;18.90;;
32172;SDS011;18679;45.190;5.722;2023-03-04T02:19:00;52.35;;;18.13;;
32172;SDS011;18679;45.190;5.722;2023-03-04T02:22:01;50.28;;;17.95;;
32172;SDS011;18679;45.190;5.722;2023-03-04T02:25:04;52.60;;;18.05;;
32172;SDS011;18679;45.190;5.722;2023-03-04T02:28:10;46.80;;;17.33;;
32172;SDS011;18679;45.190;5.722;2023-03-04T02:31:17;44.00;;;16.73;;
32172;SDS011;18679;45.190;5.722;2023-03-04T02:34:25;54.05;;;18.45;;
32172;SDS011;18679;45.190;5.722;2023-03-04T02:37:29;45.42;;;17.08;;
32172;SDS011;18679;45.190;5.722;2023-03-04T02:40:30;49.75;;;18.67;;
32172;SDS011;18679;45.190;5.722;2023-03-04T02:43:34;44.22;;;17.35;;
32172;SDS011;18679;45.190;5.722;2023-03-04T02:46:35;45.70;;;17.67;;
32172;SDS011;18679;45.190;5.722;2023-03-04T02:49:36;49.45;;;17.27;;
32172;SDS011;18679;45.190;5.722;2023-03-04T02:52:38;48.10;;;18.48;;
32172;SDS011;18679;45.190;5.722;2023-03-04T02:55:39;40.17;;;17.25;;
32172;SDS011;18679;45.190;5.722;2023-03-04T02:58:43;52.20;;;17.92;;
32172;SDS011;18679;45.190;5.722;2023-03-04T03:01:45;51.60;;;17.70;;
32172;SDS011;18679;45.190;5.722;2023-03-04T03:04:46;48.10;;;17.08;;
32172;SDS011;18679;45.190;5.722;2023-03-04T03:07:51;44.17;;;17.20;;
32172;SDS011;18679;45.190;5.722;2023-03-04T03:10:53;51.40;;;18.05;;
32172;SDS011;18679;45.190;5.722;2023-03-04T03:13:55;48.83;;;16.27;;
32172;SDS011;18679;45.190;5.722;2023-03-04T03:16:56;53.60;;;18.50;;
32172;SDS011;18679;45.190;5.722;2023-03-04T03:19:57;44.95;;;18.48;;
32172;SDS011;18679;45.190;5.722;2023-03-04T03:22:59;51.20;;;18.67;;
32172;SDS011;18679;45.190;5.722;2023-03-04T03:26:00;49.95;;;20.30;;
32172;SDS011;18679;45.190;5.722;2023-03-04T03:29:01;58.00;;;21.08;;
32172;SDS011;18679;45.190;5.722;2023-03-04T03:32:02;48.65;;;17.67;;
32172;SDS011;18679;45.190;5.722;2023-03-04T03:35:04;55.80;;;18.25;;
32172;SDS011;18679;45.190;5.722;2023-03-04T03:38:05;48.88;;;19.10;;
32172;SDS011;18679;45.190;5.722;2023-03-04T03:41:06;50.63;;;18.42;;
32172;SDS011;18679;45.190;5.722;2023-03-04T03:44:07;42.25;;;17.88;;
32172;SDS011;18679;45.190;5.722;2023-03-04T03:47:08;54.95;;;19.65;;
32172;SDS011;18679;45.190;5.722;2023-03-04T03:50:09;53.30;;;19.48;;
32172;SDS011;18679;45.190;5.722;2023-03-04T03:53:10;51.95;;;17.92;;
32172;SDS011;18679;45.190;5.722;2023-03-04T03:56:11;48.08;;;18.30;;
32172;SDS011;18679;45.190;5.722;2023-03-04T03:59:12;47.42;;;19.20;;
32172;SDS011;18679;45.190;5.722;2023-03-04T04:02:13;52.85;;;18.60;;
32172;SDS011;18679;45.190;5.722;2023-03-04T04:05:14;50.97;;;18.08;;
32172;SDS011;18679;45.190;5.722;2023-03-04T04:08:16;46.95;;;17.83;;
32172;SDS011;18679;45.190;5.722;2023-03-04T04:11:17;50.03;;;18.63;;
32172;SDS011;18679;45.190;5.722;2023-03-04T04:14:18;51.40;;;18.35;;
32172;SDS011;18679;45.190;5.722;2023-03-04T04:17:19;52.47;;;20.10;;
32172;SDS011;18679;45.190;5.722;2023-03-04T04:20:20;53.55;;;19.48;;
32172;SDS011;18679;45.190;5.722;2023-03-04T04:23:21;50.60;;;19.52;;
32172;SDS011;18679;45.190;5.722;2023-03-04T04:26:22;48.97;;;19.50;;
32172;SDS011;18679;45.190;5.722;2023-03-04T04:29:22;61.90;;;20.83;;
32172;SDS011;18679;45.190;5.722;2023-03-04T04:32:23;53.33;;;19.95;;
32172;SDS011;18679;45.190;5.722;2023-03-04T04:35:24;59.15;;;20.95;;
32172;SDS011;18679;45.190;5.722;2023-03-04T04:38:25;60.55;;;19.73;;
32172;SDS011;18679;45.190;5.722;2023-03-04T04:41:30;47.70;;;19.30;;
32172;SDS011;18679;45.190;5.722;2023-03-04T04:44:38;51.67;;;19.50;;
32172;SDS011;18679;45.190;5.722;2023-03-04T04:47:38;46.75;;;19.73;;
32172;SDS011;18679;45.190;5.722;2023-03-04T04:50:39;51.83;;;18.80;;
32172;SDS011;18679;45.190;5.722;2023-03-04T04:53:40;44.85;;;17.50;;
32172;SDS011;18679;45.190;5.722;2023-03-04T04:56:41;63.60;;;21.17;;
32172;SDS011;18679;45.190;5.722;2023-03-04T04:59:42;52.70;;;20.10;;
32172;SDS011;18679;45.190;5.722;2023-03-04T05:02:43;50.88;;;20.48;;
32172;SDS011;18679;45.190;5.722;2023-03-04T05:05:44;52.55;;;20.65;;
32172;SDS011;18679;45.190;5.722;2023-03-04T05:08:45;55.38;;;21.42;;
32172;SDS011;18679;45.190;5.722;2023-03-04T05:11:45;54.53;;;19.75;;
32172;SDS011;18679;45.190;5.722;2023-03-04T05:14:46;60.88;;;19.92;;
32172;SDS011;18679;45.190;5.722;2023-03-04T05:17:47;58.13;;;19.50;;
32172;SDS011;18679;45.190;5.722;2023-03-04T05:20:55;61.15;;;19.67;;
32172;SDS011;18679;45.190;5.722;2023-03-04T05:23:57;48.53;;;19.95;;
32172;SDS011;18679;45.190;5.722;2023-03-04T05:26:59;60.15;;;21.33;;
32172;SDS011;18679;45.190;5.722;2023-03-04T05:30:00;59.50;;;19.35;;
32172;SDS011;18679;45.190;5.722;2023-03-04T05:33:01;55.70;;;18.75;;
32172;SDS011;18679;45.190;5.722;2023-03-04T05:36:02;55.20;;;21.90;;
32172;SDS011;18679;45.190;5.722;2023-03-04T05:39:04;48.45;;;19.63;;
32172;SDS011;18679;45.190;5.722;2023-03-04T05:42:05;53.20;;;19.30;;
32172;SDS011;18679;45.190;5.722;2023-03-04T05:45:06;59.85;;;20.30;;
32172;SDS011;18679;45.190;5.722;2023-03-04T05:48:07;63.25;;;22.45;;
32172;SDS011;18679;45.190;5.722;2023-03-04T05:51:09;59.72;;;21.80;;
32172;SDS011;18679;45.190;5.722;2023-03-04T05:54:10;54.33;;;20.42;;
32172;SDS011;18679;45.190;5.722;2023-03-04T05:57:11;52.53;;;20.70;;
32172;SDS011;18679;45.190;5.722;2023-03-04T06:00:12;68.70;;;23.55;;
32172;SDS011;18679;45.190;5.722;2023-03-04T06:03:15;61.10;;;21.20;;
32172;SDS011;18679;45.190;5.722;2023-03-04T06:06:21;61.92;;;21.02;;
32172;SDS011;18679;45.190;5.722;2023-03-04T06:09:22;57.22;;;22.20;;
32172;SDS011;18679;45.190;5.722;2023-03-04T06:12:23;51.53;;;19.83;;
32172;SDS011;18679;45.190;5.722;2023-03-04T06:15:24;55.38;;;21.35;;
32172;SDS011;18679;45.190;5.722;2023-03-04T06:18:25;55.08;;;22.38;;
32172;SDS011;18679;45.190;5.722;2023-03-04T06:21:26;57.05;;;21.17;;
32172;SDS011;18679;45.190;5.722;2023-03-04T06:24:27;62.90;;;23.70;;
32172;SDS011;18679;45.190;5.722;2023-03-04T06:27:28;55.45;;;20.85;;
32172;SDS011;18679;45.190;5.722;2023-03-04T06:30:29;64.38;;;22.45;;
32172;SDS011;18679;45.190;5.722;2023-03-04T06:33:30;62.95;;;23.13;;
32172;SDS011;18679;45.190;5.722;2023-03-04T06:36:31;59.78;;;22.45;;
32172;SDS011;18679;45.190;5.722;2023-03-04T06:39:32;51.10;;;20.35;;
32172;SDS011;18679;45.190;5.722;2023-03-04T06:42:34;54.30;;;20.90;;
32172;SDS011;18679;45.190;5.722;2023-03-04T06:45:37;65.53;;;24.52;;
32172;SDS011;18679;45.190;5.722;2023-03-04T06:48:38;57.25;;;21.88;;
32172;SDS011;18679;45.190;5.722;2023-03-04T06:51:39;69.97;;;23.42;;
32172;SDS011;18679;45.190;5.722;2023-03-04T06:54:40;65.15;;;22.95;;
32172;SDS011;18679;45.190;5.722;2023-03-04T06:57:41;64.97;;;23.58;;
32172;SDS011;18679;45.190;5.722;2023-03-04T07:00:42;61.65;;;22.20;;
32172;SDS011;18679;45.190;5.722;2023-03-04T07:03:44;63.63;;;21.38;;
32172;SDS011;18679;45.190;5.722;2023-03-04T07:06:45;63.85;;;21.92;;
32172;SDS011;18679;45.190;5.722;2023-03-04T07:09:46;60.67;;;23.73;;
32172;SDS011;18679;45.190;5.722;2023-03-04T07:12:47;58.97;;;21.13;;
32172;SDS011;18679;45.190;5.722;2023-03-04T07:15:48;60.33;;;20.90;;
32172;SDS011;18679;45.190;5.722;2023-03-04T07:18:49;67.20;;;22.27;;
32172;SDS011;18679;45.190;5.722;2023-03-04T07:21:50;75.53;;;24.80;;
32172;SDS011;18679;45.190;5.722;2023-03-04T07:24:51;64.72;;;21.10;;
32172;SDS011;18679;45.190;5.722;2023-03-04T07:27:52;52.22;;;23.02;;
32172;SDS011;18679;45.190;5.722;2023-03-04T07:30:53;66.07;;;23.90;;
32172;SDS011;18679;45.190;5.722;2023-03-04T07:33:58;71.95;;;24.42;;
32172;SDS011;18679;45.190;5.722;2023-03-04T07:37:00;64.75;;;23.30;;
32172;SDS011;18679;45.190;5.722;2023-03-04T07:40:02;66.10;;;23.92;;
32172;SDS011;18679;45.190;5.722;2023-03-04T07:43:03;63.33;;;22.67;;
32172;SDS011;18679;45.190;5.722;2023-03-04T07:46:04;73.03;;;25.65;;
32172;SDS011;18679;45.190;5.722;2023-03-04T07:49:05;58.50;;;24.20;;
32172;SDS011;18679;45.190;5.722;2023-03-04T07:52:07;65.00;;;23.48;;
32172;SDS011;18679;45.190;5.722;2023-03-04T07:55:09;64.10;;;23.42;;
32172;SDS011;18679;45.190;5.722;2023-03-04T07:58:11;80.22;;;25.70;;
32172;SDS011;18679;45.190;5.722;2023-03-04T08:01:16;67.18;;;24.00;;
32172;SDS011;18679;45.190;5.722;2023-03-04T08:04:28;66.40;;;23.15;;
32172;SDS011;18679;45.190;5.722;2023-03-04T08:07:29;64.13;;;23.50;;
32172;SDS011;18679;45.190;5.722;2023-03-04T08:10:30;72.28;;;25.80;;
32172;SDS011;18679;45.190;5.722;2023-03-04T08:13:31;64.65;;;24.38;;
32172;SDS011;18679;45.190;5.722;2023-03-04T08:16:32;70.57;;;24.67;;
32172;SDS011;18679;45.190;5.722;2023-03-04T08:19:33;71.35;;;25.70;;
32172;SDS011;18679;45.190;5.722;2023-03-04T08:22:34;70.22;;;25.88;;
32172;SDS011;18679;45.190;5.722;2023-03-04T08:25:41;71.85;;;25.95;;
32172;SDS011;18679;45.190;5.722;2023-03-04T08:28:42;62.53;;;24.55;;
32172;SDS011;18679;45.190;5.722;2023-03-04T08:31:44;72.90;;;24.35;;
32172;SDS011;18679;45.190;5.722;2023-03-04T08:34:46;67.95;;;24.58;;
32172;SDS011;18679;45.190;5.722;2023-03-04T08:37:47;64.00;;;24.70;;
32172;SDS011;18679;45.190;5.722;2023-03-04T08:40:51;69.50;;;24.90;;
32172;SDS011;18679;45.190;5.722;2023-03-04T08:43:53;59.53;;;22.70;;
32172;SDS011;18679;45.190;5.722;2023-03-04T08:46:54;69.03;;;23.40;;
32172;SDS011;18679;45.190;5.722;2023-03-04T08:49:55;71.38;;;24.67;;
32172;SDS011;18679;45.190;5.722;2023-03-04T08:52:57;67.00;;;23.95;;
32172;SDS011;18679;45.190;5.722;2023-03-04T08:55:58;63.83;;;24.23;;
32172;SDS011;18679;45.190;5.722;2023-03-04T08:58:59;74.00;;;27.25;;
32172;SDS011;18679;45.190;5.722;2023-03-04T09:02:00;69.57;;;25.45;;
32172;SDS011;18679;45.190;5.722;2023-03-04T09:05:01;63.25;;;22.75;;
32172;SDS011;18679;45.190;5.722;2023-03-04T09:08:02;72.38;;;24.70;;
32172;SDS011;18679;45.190;5.722;2023-03-04T09:11:02;69.88;;;26.00;;
32172;SDS011;18679;45.190;5.722;2023-03-04T09:14:04;74.75;;;26.48;;
32172;SDS011;18679;45.190;5.722;2023-03-04T09:17:05;82.18;;;25.52;;
32172;SDS011;18679;45.190;5.722;2023-03-04T09:20:07;74.10;;;26.58;;
32172;SDS011;18679;45.190;5.722;2023-03-04T09:23:09;71.30;;;26.17;;
32172;SDS011;18679;45.190;5.722;2023-03-04T09:26:15;78.93;;;26.27;;
32172;SDS011;18679;45.190;5.722;2023-03-04T09:29:26;71.82;;;23.30;;
32172;SDS011;18679;45.190;5.722;2023-03-04T09:32:27;70.88;;;25.02;;
32172;SDS011;18679;45.190;5.722;2023-03-04T09:35:28;72.30;;;26.05;;
32172;SDS011;18679;45.190;5.722;2023-03-04T09:38:29;69.88;;;24.10;;
32172;SDS011;18679;45.190;5.722;2023-03-04T09:41:35;75.10;;;25.83;;
32172;SDS011;18679;45.190;5.722;2023-03-04T09:44:40;74.83;;;25.97;;
32172;SDS011;18679;45.190;5.722;2023-03-04T09:47:45;75.17;;;25.20;;
32172;SDS011;18679;45.190;5.722;2023-03-04T09:54:17;78.93;;;26.10;;
32172;SDS011;18679;45.190;5.722;2023-03-04T09:57:39;79.90;;;28.50;;
32172;SDS011;18679;45.190;5.722;2023-03-04T10:00:57;82.20;;;26.88;;
32172;SDS011;18679;45.190;5.722;2023-03-04T10:07:18;82.43;;;27.70;;
32172;SDS011;18679;45.190;5.722;2023-03-04T10:13:34;69.53;;;25.02;;
32172;SDS011;18679;45.190;5.722;2023-03-04T10:16:59;92.47;;;28.48;;
32172;SDS011;18679;45.190;5.722;2023-03-04T10:20:08;80.88;;;27.65;;
32172;SDS011;18679;45.190;5.722;2023-03-04T10:23:22;76.57;;;26.50;;
32172;SDS011;18679;45.190;5.722;2023-03-04T10:26:25;76.55;;;28.15;;
32172;SDS011;18679;45.190;5.722;2023-03-04T10:29:30;68.95;;;25.60;;
32172;SDS011;18679;45.190;5.722;2023-03-04T10:32:32;78.88;;;27.88;;
32172;SDS011;18679;45.190;5.722;2023-03-04T10:35:34;78.85;;;28.30;;
32172;SDS011;18679;45.190;5.722;2023-03-04T10:38:38;78.72;;;26.15;;
32172;SDS011;18679;45.190;5.722;2023-03-04T10:41:42;83.05;;;27.83;;
32172;SDS011;18679;45.190;5.722;2023-03-04T10:44:51;75.68;;;27.15;;
32172;SDS011;18679;45.190;5.722;2023-03-04T10:47:54;86.22;;;28.00;;
32172;SDS011;18679;45.190;5.722;2023-03-04T10:51:18;76.82;;;27.05;;
32172;SDS011;18679;45.190;5.722;2023-03-04T10:54:29;74.10;;;25.67;;
32172;SDS011;18679;45.190;5.722;2023-03-04T10:57:37;76.82;;;27.48;;
32172;SDS011;18679;45.190;5.722;2023-03-04T11:00:41;82.55;;;28.88;;
32172;SDS011;18679;45.190;5.722;2023-03-04T11:03:45;77.20;;;27.88;;
32172;SDS011;18679;45.190;5.722;2023-03-04T11:06:48;82.22;;;26.92;;
32172;SDS011;18679;45.190;5.722;2023-03-04T11:09:48;76.13;;;26.33;;
32172;SDS011;18679;45.190;5.722;2023-03-04T11:12:51;82.50;;;26.70;;
32172;SDS011;18679;45.190;5.722;2023-03-04T11:16:00;85.22;;;29.90;;
32172;SDS011;18679;45.190;5.722;2023-03-04T11:19:12;81.88;;;28.95;;
32172;SDS011;18679;45.190;5.722;2023-03-04T11:22:16;78.88;;;26.02;;
32172;SDS011;18679;45.190;5.722;2023-03-04T11:29:07;78.53;;;23.88;;
32172;SDS011;18679;45.190;5.722;2023-03-04T11:32:27;70.20;;;25.50;;
32172;SDS011;18679;45.190;5.722;2023-03-04T11:35:56;72.85;;;24.40;;
32172;SDS011;18679;45.190;5.722;2023-03-04T11:39:23;63.05;;;23.33;;
32172;SDS011;18679;45.190;5.722;2023-03-04T11:42:33;67.03;;;24.40;;
32172;SDS011;18679;45.190;5.722;2023-03-04T12:02:58;64.07;;;23.70;;
32172;SDS011;18679;45.190;5.722;2023-03-04T12:32:35;59.35;;;19.85;;
32172;SDS011;18679;45.190;5.722;2023-03-04T12:49:29;52.28;;;19.63;;
32172;SDS011;18679;45.190;5.722;2023-03-04T12:52:54;54.20;;;19.55;;
32172;SDS011;18679;45.190;5.722;2023-03-04T12:55:58;48.85;;;19.13;;
32172;SDS011;18679;45.190;5.722;2023-03-04T12:59:02;52.42;;;21.02;;
32172;SDS011;18679;45.190;5.722;2023-03-04T13:05:32;56.85;;;18.98;;
32172;SDS011;18679;45.190;5.722;2023-03-04T13:08:47;54.88;;;19.40;;
32172;SDS011;18679;45.190;5.722;2023-03-04T13:12:13;55.60;;;20.02;;
32172;SDS011;18679;45.190;5.722;2023-03-04T13:21:31;56.88;;;21.55;;
32172;SDS011;18679;45.190;5.722;2023-03-04T13:24:46;54.08;;;20.85;;
32172;SDS011;18679;45.190;5.722;2023-03-04T13:28:04;68.40;;;22.30;;
32172;SDS011;18679;45.190;5.722;2023-03-04T13:34:39;56.15;;;20.08;;
32172;SDS011;18679;45.190;5.722;2023-03-04T13:37:57;58.85;;;20.55;;
32172;SDS011;18679;45.190;5.722;2023-03-04T13:47:56;57.97;;;20.65;;
32172;SDS011;18679;45.190;5.722;2023-03-04T13:50:57;61.03;;;23.50;;
32172;SDS011;18679;45.190;5.722;2023-03-04T14:00:01;64.85;;;22.77;;
32172;SDS011;18679;45.190;5.722;2023-03-04T14:03:12;66.32;;;22.80;;
32172;SDS011;18679;45.190;5.722;2023-03-04T14:06:18;57.53;;;21.15;;
32172;SDS011;18679;45.190;5.722;2023-03-04T14:09:21;72.32;;;23.42;;
32172;SDS011;18679;45.190;5.722;2023-03-04T14:12:27;63.75;;;22.88;;
32172;SDS011;18679;45.190;5.722;2023-03-04T14:15:30;66.22;;;23.25;;
32172;SDS011;18679;45.190;5.722;2023-03-04T14:18:34;70.28;;;23.13;;
32172;SDS011;18679;45.190;5.722;2023-03-04T14:21:36;67.03;;;22.52;;
32172;SDS011;18679;45.190;5.722;2023-03-04T14:24:37;56.13;;;21.95;;
32172;SDS011;18679;45.190;5.722;2023-03-04T14:27:37;67.15;;;21.98;;
32172;SDS011;18679;45.190;5.722;2023-03-04T14:30:39;61.17;;;21.67;;
32172;SDS011;18679;45.190;5.722;2023-03-04T14:33:42;63.05;;;21.13;;
32172;SDS011;18679;45.190;5.722;2023-03-04T14:36:45;65.15;;;22.00;;
32172;SDS011;18679;45.190;5.722;2023-03-04T14:39:47;63.22;;;21.88;;
32172;SDS011;18679;45.190;5.722;2023-03-04T14:42:57;61.80;;;22.42;;
32172;SDS011;18679;45.190;5.722;2023-03-04T14:46:04;68.68;;;23.80;;
32172;SDS011;18679;45.190;5.722;2023-03-04T14:49:12;59.95;;;22.63;;
32172;SDS011;18679;45.190;5.722;2023-03-04T14:55:38;63.28;;;20.58;;
32172;SDS011;18679;45.190;5.722;2023-03-04T14:58:52;53.80;;;19.23;;
32172;SDS011;18679;45.190;5.722;2023-03-04T15:02:07;47.50;;;18.80;;
32172;SDS011;18679;45.190;5.722;2023-03-04T15:09:16;52.88;;;19.10;;
32172;SDS011;18679;45.190;5.722;2023-03-04T15:12:01;52.15;;;19.00;;
32172;SDS011;18679;45.190;5.722;2023-03-04T15:18:31;54.90;;;20.88;;
32172;SDS011;18679;45.190;5.722;2023-03-04T15:24:39;54.88;;;18.88;;
32172;SDS011;18679;45.190;5.722;2023-03-04T15:27:40;52.33;;;19.17;;
32172;SDS011;18679;45.190;5.722;2023-03-04T15:30:43;59.45;;;21.08;;
32172;SDS011;18679;45.190;5.722;2023-03-04T15:33:44;52.53;;;19.15;;
32172;SDS011;18679;45.190;5.722;2023-03-04T15:36:46;61.30;;;20.60;;
32172;SDS011;18679;45.190;5.722;2023-03-04T15:39:49;56.88;;;20.75;;
32172;SDS011;18679;45.190;5.722;2023-03-04T15:42:51;52.40;;;19.35;;
32172;SDS011;18679;45.190;5.722;2023-03-04T15:45:52;51.47;;;18.60;;
32172;SDS011;18679;45.190;5.722;2023-03-04T15:48:53;54.10;;;19.63;;
32172;SDS011;18679;45.190;5.722;2023-03-04T15:51:54;53.08;;;18.20;;
32172;SDS011;18679;45.190;5.722;2023-03-04T15:54:56;51.47;;;19.02;;
32172;SDS011;18679;45.190;5.722;2023-03-04T15:57:57;51.72;;;18.00;;
32172;SDS011;18679;45.190;5.722;2023-03-04T16:00:59;51.50;;;18.52;;
32172;SDS011;18679;45.190;5.722;2023-03-04T16:04:00;55.63;;;18.05;;
32172;SDS011;18679;45.190;5.722;2023-03-04T16:07:01;48.25;;;18.80;;
32172;SDS011;18679;45.190;5.722;2023-03-04T16:13:28;47.80;;;16.90;;
32172;SDS011;18679;45.190;5.722;2023-03-04T16:16:29;51.10;;;18.42;;
32172;SDS011;18679;45.190;5.722;2023-03-04T16:19:30;50.05;;;17.17;;
32172;SDS011;18679;45.190;5.722;2023-03-04T16:22:31;47.15;;;17.73;;
32172;SDS011;18679;45.190;5.722;2023-03-04T16:25:32;46.22;;;16.90;;
32172;SDS011;18679;45.190;5.722;2023-03-04T16:28:33;48.75;;;17.13;;
32172;SDS011;18679;45.190;5.722;2023-03-04T16:31:34;47.95;;;19.27;;
32172;SDS011;18679;45.190;5.722;2023-03-04T16:34:35;48.40;;;16.23;;
32172;SDS011;18679;45.190;5.722;2023-03-04T16:37:36;51.00;;;18.05;;
32172;SDS011;18679;45.190;5.722;2023-03-04T16:40:37;41.58;;;16.85;;
32172;SDS011;18679;45.190;5.722;2023-03-04T16:43:39;47.10;;;16.80;;
32172;SDS011;18679;45.190;5.722;2023-03-04T16:46:40;41.22;;;16.95;;
32172;SDS011;18679;45.190;5.722;2023-03-04T16:49:41;41.00;;;15.88;;
32172;SDS011;18679;45.190;5.722;2023-03-04T16:52:43;44.47;;;16.63;;
32172;SDS011;18679;45.190;5.722;2023-03-04T16:55:45;41.35;;;16.27;;
32172;SDS011;18679;45.190;5.722;2023-03-04T16:58:46;47.53;;;17.45;;
32172;SDS011;18679;45.190;5.722;2023-03-04T17:01:47;44.80;;;17.23;;
32172;SDS011;18679;45.190;5.722;2023-03-04T17:04:49;56.65;;;19.15;;
32172;SDS011;18679;45.190;5.722;2023-03-04T17:07:50;47.55;;;16.80;;
32172;SDS011;18679;45.190;5.722;2023-03-04T17:10:51;44.75;;;17.20;;
32172;SDS011;18679;45.190;5.722;2023-03-04T17:13:52;49.90;;;17.67;;
32172;SDS011;18679;45.190;5.722;2023-03-04T17:16:53;43.95;;;17.80;;
32172;SDS011;18679;45.190;5.722;2023-03-04T17:19:54;55.90;;;17.60;;
32172;SDS011;18679;45.190;5.722;2023-03-04T17:22:54;62.55;;;20.25;;
32172;SDS011;18679;45.190;5.722;2023-03-04T17:25:56;48.28;;;18.10;;
32172;SDS011;18679;45.190;5.722;2023-03-04T17:28:58;47.20;;;17.52;;
32172;SDS011;18679;45.190;5.722;2023-03-04T17:31:59;54.90;;;18.52;;
32172;SDS011;18679;45.190;5.722;2023-03-04T17:35:00;47.38;;;17.80;;
32172;SDS011;18679;45.190;5.722;2023-03-04T17:38:02;52.38;;;17.88;;
32172;SDS011;18679;45.190;5.722;2023-03-04T17:41:03;50.47;;;18.90;;
32172;SDS011;18679;45.190;5.722;2023-03-04T17:44:05;52.45;;;19.35;;
32172;SDS011;18679;45.190;5.722;2023-03-04T17:47:06;50.05;;;17.40;;
32172;SDS011;18679;45.190;5.722;2023-03-04T17:50:07;46.20;;;17.55;;
32172;SDS011;18679;45.190;5.722;2023-03-04T17:53:09;51.17;;;17.27;;
32172;SDS011;18679;45.190;5.722;2023-03-04T17:56:10;61.35;;;16.42;;
32172;SDS011;18679;45.190;5.722;2023-03-04T17:59:13;42.50;;;16.25;;
32172;SDS011;18679;45.190;5.722;2023-03-04T18:02:15;52.35;;;18.02;;
32172;SDS011;18679;45.190;5.722;2023-03-04T18:05:16;51.67;;;17.50;;
32172;SDS011;18679;45.190;5.722;2023-03-04T18:08:17;49.63;;;17.60;;
32172;SDS011;18679;45.190;5.722;2023-03-04T18:11:19;44.58;;;17.00;;
32172;SDS011;18679;45.190;5.722;2023-03-04T18:14:20;52.08;;;18.42;;
32172;SDS011;18679;45.190;5.722;2023-03-04T18:17:21;59.75;;;17.70;;
32172;SDS011;18679;45.190;5.722;2023-03-04T18:20:22;47.55;;;17.73;;
32172;SDS011;18679;45.190;5.722;2023-03-04T18:23:24;53.80;;;19.17;;
32172;SDS011;18679;45.190;5.722;2023-03-04T18:26:25;58.17;;;18.63;;
32172;SDS011;18679;45.190;5.722;2023-03-04T18:29:26;58.92;;;20.02;;
32172;SDS011;18679;45.190;5.722;2023-03-04T18:32:28;58.58;;;18.08;;
32172;SDS011;18679;45.190;5.722;2023-03-04T18:35:29;54.25;;;17.80;;
32172;SDS011;18679;45.190;5.722;2023-03-04T18:38:32;51.28;;;18.65;;
32172;SDS011;18679;45.190;5.722;2023-03-04T18:41:33;51.10;;;18.40;;
32172;SDS011;18679;45.190;5.722;2023-03-04T18:44:34;49.25;;;18.40;;
32172;SDS011;18679;45.190;5.722;2023-03-04T18:47:35;53.22;;;19.35;;
32172;SDS011;18679;45.190;5.722;2023-03-04T18:50:36;57.78;;;20.35;;
32172;SDS011;18679;45.190;5.722;2023-03-04T18:53:37;54.75;;;19.95;;
32172;SDS011;18679;45.190;5.722;2023-03-04T18:56:40;58.88;;;20.25;;
32172;SDS011;18679;45.190;5.722;2023-03-04T18:59:48;60.72;;;21.92;;
32172;SDS011;18679;45.190;5.722;2023-03-04T19:06:00;56.72;;;19.10;;
32172;SDS011;18679;45.190;5.722;2023-03-04T19:09:01;54.20;;;19.52;;
32172;SDS011;18679;45.190;5.722;2023-03-04T19:12:04;56.55;;;19.98;;
32172;SDS011;18679;45.190;5.722;2023-03-04T19:15:06;53.85;;;18.98;;
32172;SDS011;18679;45.190;5.722;2023-03-04T19:18:09;48.13;;;18.77;;
32172;SDS011;18679;45.190;5.722;2023-03-04T19:21:10;62.17;;;22.48;;
32172;SDS011;18679;45.190;5.722;2023-03-04T19:24:11;53.00;;;20.58;;
32172;SDS011;18679;45.190;5.722;2023-03-04T19:27:12;56.33;;;20.67;;
32172;SDS011;18679;45.190;5.722;2023-03-04T19:30:13;51.38;;;18.42;;
32172;SDS011;18679;45.190;5.722;2023-03-04T19:33:14;60.17;;;19.60;;
32172;SDS011;18679;45.190;5.722;2023-03-04T19:36:15;54.17;;;19.02;;
32172;SDS011;18679;45.190;5.722;2023-03-04T19:39:15;51.38;;;18.88;;
32172;SDS011;18679;45.190;5.722;2023-03-04T19:42:17;54.67;;;18.20;;
32172;SDS011;18679;45.190;5.722;2023-03-04T19:45:18;62.80;;;20.20;;
32172;SDS011;18679;45.190;5.722;2023-03-04T19:48:19;59.10;;;19.67;;